Hovedside
METAR-TAF:

METAR-TAF

Lufthavner :

Kemi-Torneå lufthavn

Kemi, Finland

breddegrad: 65-47N, lengdegrad: 024-35E, høyde over havet: 15 m

Gjeldene værobservasjon

Denne rapporten ble laget for 31 minutter siden, klokken 04:20 UTC
Vind 6 kt fra Vest, skiftende mellom Sørvest og Vest-nordvest
Temperatur 12°C
Luftfuktighet 62%
Trykk 999 hPa
Sikt 10 km eller mer
ingen skyer under 1500 m og ingen bygeskyer

METAR: EFKE 210420Z AUTO 26006KT 220V300 CAVOK 12/05 Q0999

Tid: 07:51 (04:51 UTC)

Varsel

Denne rapporten ble laget for 8 timer og 25 minutter siden, klokken 20:26 UTC
Varsel gyldig fra 20. klokken 21 UTC til 20. klokken 24 UTC
Vind 9 kt fra Vest-sørvest
Sikt 10 km eller mer
ingen skyer under 1500 m og ingen bygeskyer

TAF: EFKE 202026Z 2021/2024 24009KT CAVOK

Værobservasjoner og værvarsel for over 4000 flyplasser (METAR- og TAF-rapporter).

Tilgjengelige stasjoner er representert av de røde og gule prikkene på kartet.

Hold musepekeren over prikken for å se navnet på stasjonen.

Klikk så for å se værobservasjoner og -varsler.

For å forandre kartet kan du klikke på den grønne knappen med svart kryss for å zoome inn, på den grønne knappen med strek for å zoome ut, eller på de grønne pilene for å se tilstøtende kart.


METAR-TAF: